Terminal Aerodrome Forecast
Issued by NWS

Home | Current Version | Previous Version | Text Only | Print | Product List | Glossary Off
Versions: 1 2 3 4 5 6 7 8 9 10 11 12 13

000
FTUS43 KICT 012323
TAFHUT
TAF
KHUT 012323Z 0200/0224 35009KT P6SM SCT035 BKN120
     FM020600 36007KT P6SM VCSH SCT015 OVC025
     FM021600 34009KT P6SM SCT080=

USA.gov is the U.S. government's official web portal to all federal, state and local government web resources and services.